sensor_id;sensor_type;location;lat;lon;timestamp;pressure;altitude;pressure_sealevel;temperature;humidity
11345;BME280;5727;42.600;23.028;2023-05-08T00:00:47;93812.53;;;13.63;100.00
11345;BME280;5727;42.600;23.028;2023-05-08T00:03:13;93818.06;;;13.58;100.00
11345;BME280;5727;42.600;23.028;2023-05-08T00:05:41;93810.81;;;13.55;100.00
11345;BME280;5727;42.600;23.028;2023-05-08T00:08:08;93819.41;;;13.52;100.00
11345;BME280;5727;42.600;23.028;2023-05-08T00:10:35;93819.75;;;13.50;100.00
11345;BME280;5727;42.600;23.028;2023-05-08T00:13:01;93817.38;;;13.45;100.00
11345;BME280;5727;42.600;23.028;2023-05-08T00:15:28;93822.53;;;13.42;100.00
11345;BME280;5727;42.600;23.028;2023-05-08T00:17:55;93822.53;;;13.42;100.00
11345;BME280;5727;42.600;23.028;2023-05-08T00:20:22;93826.19;;;13.37;100.00
11345;BME280;5727;42.600;23.028;2023-05-08T00:22:50;93827.88;;;13.30;100.00
11345;BME280;5727;42.600;23.028;2023-05-08T00:25:16;93838.06;;;13.16;100.00
11345;BME280;5727;42.600;23.028;2023-05-08T00:27:43;93831.53;;;13.10;100.00
11345;BME280;5727;42.600;23.028;2023-05-08T00:30:11;93837.44;;;13.07;100.00
11345;BME280;5727;42.600;23.028;2023-05-08T00:32:38;93836.69;;;13.06;100.00
11345;BME280;5727;42.600;23.028;2023-05-08T00:35:05;93840.84;;;13.07;100.00
11345;BME280;5727;42.600;23.028;2023-05-08T00:37:31;93837.78;;;13.05;100.00
11345;BME280;5727;42.600;23.028;2023-05-08T00:40:00;93834.25;;;13.01;100.00
11345;BME280;5727;42.600;23.028;2023-05-08T00:42:26;93840.88;;;12.95;100.00
11345;BME280;5727;42.600;23.028;2023-05-08T00:44:53;93842.75;;;12.95;100.00
11345;BME280;5727;42.600;23.028;2023-05-08T00:47:20;93845.38;;;12.95;100.00
11345;BME280;5727;42.600;23.028;2023-05-08T00:49:48;93848.31;;;12.93;100.00
11345;BME280;5727;42.600;23.028;2023-05-08T00:52:15;93853.50;;;12.89;100.00
11345;BME280;5727;42.600;23.028;2023-05-08T00:54:43;93849.81;;;12.78;100.00
11345;BME280;5727;42.600;23.028;2023-05-08T00:57:13;93855.31;;;12.73;100.00
11345;BME280;5727;42.600;23.028;2023-05-08T00:59:41;93852.38;;;12.75;100.00
11345;BME280;5727;42.600;23.028;2023-05-08T01:02:09;93851.59;;;12.74;100.00
11345;BME280;5727;42.600;23.028;2023-05-08T01:04:36;93858.38;;;12.75;100.00
11345;BME280;5727;42.600;23.028;2023-05-08T01:07:03;93859.03;;;12.72;100.00
11345;BME280;5727;42.600;23.028;2023-05-08T01:09:30;93849.31;;;12.73;100.00
11345;BME280;5727;42.600;23.028;2023-05-08T01:12:05;93849.22;;;12.69;100.00
11345;BME280;5727;42.600;23.028;2023-05-08T01:14:55;93856.22;;;12.65;100.00
11345;BME280;5727;42.600;23.028;2023-05-08T01:17:32;93855.38;;;12.61;100.00
11345;BME280;5727;42.600;23.028;2023-05-08T01:20:20;93856.88;;;12.62;100.00
11345;BME280;5727;42.600;23.028;2023-05-08T01:26:13;93851.78;;;12.54;100.00
11345;BME280;5727;42.600;23.028;2023-05-08T01:29:12;93849.50;;;12.52;100.00
11345;BME280;5727;42.600;23.028;2023-05-08T01:34:25;93849.28;;;12.45;100.00
11345;BME280;5727;42.600;23.028;2023-05-08T01:36:57;93852.13;;;12.40;100.00
11345;BME280;5727;42.600;23.028;2023-05-08T01:39:33;93843.16;;;12.41;100.00
11345;BME280;5727;42.600;23.028;2023-05-08T01:42:04;93846.13;;;12.40;100.00
11345;BME280;5727;42.600;23.028;2023-05-08T01:44:36;93844.59;;;12.39;100.00
11345;BME280;5727;42.600;23.028;2023-05-08T01:47:06;93842.53;;;12.32;100.00
11345;BME280;5727;42.600;23.028;2023-05-08T01:49:38;93847.44;;;12.34;100.00
11345;BME280;5727;42.600;23.028;2023-05-08T01:52:09;93846.69;;;12.33;100.00
11345;BME280;5727;42.600;23.028;2023-05-08T01:54:43;93837.06;;;12.25;100.00
11345;BME280;5727;42.600;23.028;2023-05-08T01:57:13;93845.16;;;12.32;100.00
11345;BME280;5727;42.600;23.028;2023-05-08T01:59:40;93839.47;;;12.30;100.00
11345;BME280;5727;42.600;23.028;2023-05-08T02:02:08;93846.69;;;12.33;100.00
11345;BME280;5727;42.600;23.028;2023-05-08T02:04:38;93840.00;;;12.24;100.00
11345;BME280;5727;42.600;23.028;2023-05-08T02:07:06;93844.28;;;12.16;100.00
11345;BME280;5727;42.600;23.028;2023-05-08T02:09:33;93843.75;;;12.11;100.00
11345;BME280;5727;42.600;23.028;2023-05-08T02:12:01;93836.22;;;12.09;100.00
11345;BME280;5727;42.600;23.028;2023-05-08T02:14:31;93839.81;;;12.05;100.00
11345;BME280;5727;42.600;23.028;2023-05-08T02:16:58;93842.25;;;11.98;100.00
11345;BME280;5727;42.600;23.028;2023-05-08T02:19:28;93849.78;;;11.99;100.00
11345;BME280;5727;42.600;23.028;2023-05-08T02:21:57;93839.53;;;11.94;100.00
11345;BME280;5727;42.600;23.028;2023-05-08T02:24:25;93844.88;;;11.98;100.00
11345;BME280;5727;42.600;23.028;2023-05-08T02:26:52;93845.22;;;11.96;100.00
11345;BME280;5727;42.600;23.028;2023-05-08T02:29:22;93848.81;;;11.91;100.00
11345;BME280;5727;42.600;23.028;2023-05-08T02:31:49;93852.88;;;11.89;100.00
11345;BME280;5727;42.600;23.028;2023-05-08T02:34:19;93858.88;;;11.89;100.00
11345;BME280;5727;42.600;23.028;2023-05-08T02:36:48;93860.09;;;11.80;100.00
11345;BME280;5727;42.600;23.028;2023-05-08T02:39:18;93856.72;;;11.79;100.00
11345;BME280;5727;42.600;23.028;2023-05-08T02:41:46;93858.78;;;11.86;100.00
11345;BME280;5727;42.600;23.028;2023-05-08T02:44:13;93856.81;;;11.83;100.00
11345;BME280;5727;42.600;23.028;2023-05-08T02:46:46;93856.94;;;11.86;100.00
11345;BME280;5727;42.600;23.028;2023-05-08T02:49:24;93851.25;;;11.84;100.00
11345;BME280;5727;42.600;23.028;2023-05-08T02:51:54;93852.66;;;11.82;100.00
11345;BME280;5727;42.600;23.028;2023-05-08T02:54:32;93854.63;;;11.73;100.00
11345;BME280;5727;42.600;23.028;2023-05-08T02:57:07;93854.28;;;11.74;100.00
11345;BME280;5727;42.600;23.028;2023-05-08T02:59:38;93852.53;;;11.66;100.00
11345;BME280;5727;42.600;23.028;2023-05-08T03:02:09;93856.91;;;11.74;100.00
11345;BME280;5727;42.600;23.028;2023-05-08T03:04:44;93852.22;;;11.80;100.00
11345;BME280;5727;42.600;23.028;2023-05-08T03:07:13;93853.31;;;11.79;100.00
11345;BME280;5727;42.600;23.028;2023-05-08T03:09:46;93857.03;;;11.78;100.00
11345;BME280;5727;42.600;23.028;2023-05-08T03:12:17;93860.84;;;11.80;100.00
11345;BME280;5727;42.600;23.028;2023-05-08T03:14:51;93859.34;;;11.79;100.00
11345;BME280;5727;42.600;23.028;2023-05-08T03:17:21;93856.16;;;11.74;100.00
11345;BME280;5727;42.600;23.028;2023-05-08T03:19:54;93864.78;;;11.74;100.00
11345;BME280;5727;42.600;23.028;2023-05-08T03:22:23;93870.38;;;11.73;100.00
11345;BME280;5727;42.600;23.028;2023-05-08T03:24:54;93865.22;;;11.76;100.00
11345;BME280;5727;42.600;23.028;2023-05-08T03:27:22;93862.72;;;11.68;100.00
11345;BME280;5727;42.600;23.028;2023-05-08T03:29:50;93859.88;;;11.73;100.00
11345;BME280;5727;42.600;23.028;2023-05-08T03:32:19;93862.72;;;11.68;100.00
11345;BME280;5727;42.600;23.028;2023-05-08T03:34:47;93857.69;;;11.75;100.00
11345;BME280;5727;42.600;23.028;2023-05-08T03:37:15;93862.16;;;11.74;100.00
11345;BME280;5727;42.600;23.028;2023-05-08T03:39:42;93861.19;;;11.79;100.00
11345;BME280;5727;42.600;23.028;2023-05-08T03:42:11;93863.81;;;11.79;100.00
11345;BME280;5727;42.600;23.028;2023-05-08T03:44:46;93865.56;;;11.87;100.00
11345;BME280;5727;42.600;23.028;2023-05-08T03:47:13;93865.69;;;11.90;100.00
11345;BME280;5727;42.600;23.028;2023-05-08T03:49:41;93873.31;;;11.95;100.00
11345;BME280;5727;42.600;23.028;2023-05-08T03:52:08;93873.00;;;11.97;100.00
11345;BME280;5727;42.600;23.028;2023-05-08T03:54:35;93874.44;;;11.82;100.00
11345;BME280;5727;42.600;23.028;2023-05-08T03:57:01;93878.56;;;11.95;100.00
11345;BME280;5727;42.600;23.028;2023-05-08T03:59:37;93867.53;;;11.90;100.00
11345;BME280;5727;42.600;23.028;2023-05-08T04:02:14;93875.06;;;11.91;100.00
11345;BME280;5727;42.600;23.028;2023-05-08T04:04:46;93866.41;;;11.91;100.00
11345;BME280;5727;42.600;23.028;2023-05-08T04:07:22;93871.69;;;11.91;100.00
11345;BME280;5727;42.600;23.028;2023-05-08T04:09:55;93876.38;;;11.98;100.00
11345;BME280;5727;42.600;23.028;2023-05-08T04:12:29;93869.47;;;12.05;100.00
11345;BME280;5727;42.600;23.028;2023-05-08T04:15:03;93888.50;;;12.14;100.00
11345;BME280;5727;42.600;23.028;2023-05-08T04:17:35;93880.31;;;12.16;100.00
11345;BME280;5727;42.600;23.028;2023-05-08T04:20:04;93880.84;;;12.21;100.00
11345;BME280;5727;42.600;23.028;2023-05-08T04:22:33;93884.56;;;12.32;100.00
11345;BME280;5727;42.600;23.028;2023-05-08T04:25:03;93874.59;;;12.38;100.00
11345;BME280;5727;42.600;23.028;2023-05-08T04:27:32;93880.16;;;12.48;100.00
11345;BME280;5727;42.600;23.028;2023-05-08T04:30:01;93882.19;;;12.55;100.00
11345;BME280;5727;42.600;23.028;2023-05-08T04:32:29;93885.84;;;12.50;100.00
11345;BME280;5727;42.600;23.028;2023-05-08T04:34:57;93881.03;;;12.52;100.00
11345;BME280;5727;42.600;23.028;2023-05-08T04:37:25;93881.31;;;12.63;100.00
11345;BME280;5727;42.600;23.028;2023-05-08T04:39:52;93880.50;;;12.74;100.00
11345;BME280;5727;42.600;23.028;2023-05-08T04:42:19;93880.03;;;12.84;100.00
11345;BME280;5727;42.600;23.028;2023-05-08T04:44:46;93876.59;;;12.96;100.00
11345;BME280;5727;42.600;23.028;2023-05-08T04:47:14;93870.47;;;13.04;100.00
11345;BME280;5727;42.600;23.028;2023-05-08T04:49:41;93871.72;;;13.10;100.00
11345;BME280;5727;42.600;23.028;2023-05-08T04:52:08;93872.94;;;13.13;100.00
11345;BME280;5727;42.600;23.028;2023-05-08T04:54:35;93869.88;;;13.26;100.00
11345;BME280;5727;42.600;23.028;2023-05-08T04:57:01;93872.59;;;13.30;100.00
11345;BME280;5727;42.600;23.028;2023-05-08T04:59:29;93870.84;;;13.34;100.00
11345;BME280;5727;42.600;23.028;2023-05-08T05:01:55;93875.94;;;13.27;100.00
11345;BME280;5727;42.600;23.028;2023-05-08T05:04:23;93875.72;;;13.04;100.00
11345;BME280;5727;42.600;23.028;2023-05-08T05:06:50;93860.00;;;12.80;100.00
11345;BME280;5727;42.600;23.028;2023-05-08T05:09:17;93858.97;;;12.97;100.00
11345;BME280;5727;42.600;23.028;2023-05-08T05:11:44;93854.69;;;13.04;100.00
11345;BME280;5727;42.600;23.028;2023-05-08T05:14:10;93851.28;;;12.92;100.00
11345;BME280;5727;42.600;23.028;2023-05-08T05:16:37;93863.34;;;12.93;100.00
11345;BME280;5727;42.600;23.028;2023-05-08T05:19:04;93858.31;;;12.87;100.00
11345;BME280;5727;42.600;23.028;2023-05-08T05:21:32;93856.56;;;12.92;100.00
11345;BME280;5727;42.600;23.028;2023-05-08T05:23:59;93861.16;;;12.95;100.00
11345;BME280;5727;42.600;23.028;2023-05-08T05:26:26;93857.88;;;12.85;100.00
11345;BME280;5727;42.600;23.028;2023-05-08T05:28:53;93854.25;;;12.90;100.00
11345;BME280;5727;42.600;23.028;2023-05-08T05:31:19;93852.50;;;12.94;100.00
11345;BME280;5727;42.600;23.028;2023-05-08T05:33:46;93860.38;;;12.66;100.00
11345;BME280;5727;42.600;23.028;2023-05-08T05:38:59;93855.53;;;12.41;100.00
11345;BME280;5727;42.600;23.028;2023-05-08T05:41:26;93853.97;;;12.52;100.00
11345;BME280;5727;42.600;23.028;2023-05-08T05:43:53;93855.13;;;12.66;100.00
11345;BME280;5727;42.600;23.028;2023-05-08T05:46:20;93846.94;;;12.83;100.00
11345;BME280;5727;42.600;23.028;2023-05-08T05:48:50;93845.47;;;12.98;100.00
11345;BME280;5727;42.600;23.028;2023-05-08T05:51:17;93843.63;;;13.14;100.00
11345;BME280;5727;42.600;23.028;2023-05-08T05:53:44;93839.44;;;13.25;100.00
11345;BME280;5727;42.600;23.028;2023-05-08T05:56:12;93834.50;;;13.39;100.00
11345;BME280;5727;42.600;23.028;2023-05-08T05:58:38;93838.69;;;13.40;100.00
11345;BME280;5727;42.600;23.028;2023-05-08T06:01:09;93841.38;;;13.44;100.00
11345;BME280;5727;42.600;23.028;2023-05-08T06:03:35;93838.50;;;13.49;100.00
11345;BME280;5727;42.600;23.028;2023-05-08T06:06:03;93829.81;;;13.64;100.00
11345;BME280;5727;42.600;23.028;2023-05-08T06:08:29;93835.59;;;13.85;100.00
11345;BME280;5727;42.600;23.028;2023-05-08T06:10:56;93831.50;;;13.88;100.00
11345;BME280;5727;42.600;23.028;2023-05-08T06:13:24;93828.34;;;13.98;100.00
11345;BME280;5727;42.600;23.028;2023-05-08T06:15:53;93835.06;;;13.95;100.00
11345;BME280;5727;42.600;23.028;2023-05-08T06:18:21;93841.19;;;13.99;100.00
11345;BME280;5727;42.600;23.028;2023-05-08T06:20:48;93845.59;;;13.95;100.00
11345;BME280;5727;42.600;23.028;2023-05-08T06:23:15;93845.00;;;14.02;100.00
11345;BME280;5727;42.600;23.028;2023-05-08T06:25:41;93839.81;;;14.05;100.00
11345;BME280;5727;42.600;23.028;2023-05-08T06:28:08;93840.72;;;14.13;100.00
11345;BME280;5727;42.600;23.028;2023-05-08T06:30:36;93847.34;;;14.22;100.00
11345;BME280;5727;42.600;23.028;2023-05-08T06:33:03;93851.81;;;14.37;100.00
11345;BME280;5727;42.600;23.028;2023-05-08T06:35:30;93847.13;;;14.46;100.00
11345;BME280;5727;42.600;23.028;2023-05-08T06:37:56;93853.09;;;14.43;100.00
11345;BME280;5727;42.600;23.028;2023-05-08T06:40:23;93845.72;;;14.52;100.00
11345;BME280;5727;42.600;23.028;2023-05-08T06:42:50;93833.81;;;14.78;100.00
11345;BME280;5727;42.600;23.028;2023-05-08T06:45:17;93843.44;;;15.08;100.00
11345;BME280;5727;42.600;23.028;2023-05-08T06:47:45;93849.28;;;15.40;100.00
11345;BME280;5727;42.600;23.028;2023-05-08T06:50:12;93849.00;;;15.90;100.00
11345;BME280;5727;42.600;23.028;2023-05-08T06:52:38;93852.09;;;16.22;100.00
11345;BME280;5727;42.600;23.028;2023-05-08T06:55:05;93854.41;;;16.50;100.00
11345;BME280;5727;42.600;23.028;2023-05-08T06:57:33;93850.34;;;16.56;100.00
11345;BME280;5727;42.600;23.028;2023-05-08T06:59:59;93854.94;;;16.62;100.00
11345;BME280;5727;42.600;23.028;2023-05-08T07:02:26;93855.78;;;16.99;100.00
11345;BME280;5727;42.600;23.028;2023-05-08T07:04:54;93860.72;;;17.04;100.00
11345;BME280;5727;42.600;23.028;2023-05-08T07:07:21;93861.16;;;16.73;100.00
11345;BME280;5727;42.600;23.028;2023-05-08T07:09:47;93861.34;;;16.91;100.00
11345;BME280;5727;42.600;23.028;2023-05-08T07:12:14;93859.81;;;16.90;100.00
11345;BME280;5727;42.600;23.028;2023-05-08T07:14:41;93855.53;;;16.78;100.00
11345;BME280;5727;42.600;23.028;2023-05-08T07:17:08;93847.75;;;16.92;100.00
11345;BME280;5727;42.600;23.028;2023-05-08T07:19:35;93850.03;;;16.94;100.00
11345;BME280;5727;42.600;23.028;2023-05-08T07:22:04;93856.72;;;17.17;100.00
11345;BME280;5727;42.600;23.028;2023-05-08T07:24:31;93856.44;;;17.26;100.00
11345;BME280;5727;42.600;23.028;2023-05-08T07:26:57;93853.38;;;17.24;100.00
11345;BME280;5727;42.600;23.028;2023-05-08T07:29:24;93862.81;;;17.55;100.00
11345;BME280;5727;42.600;23.028;2023-05-08T07:31:51;93852.84;;;17.45;100.00
11345;BME280;5727;42.600;23.028;2023-05-08T07:34:18;93864.16;;;17.42;100.00
11345;BME280;5727;42.600;23.028;2023-05-08T07:36:45;93857.84;;;17.50;100.00
11345;BME280;5727;42.600;23.028;2023-05-08T07:39:13;93864.72;;;17.58;100.00
11345;BME280;5727;42.600;23.028;2023-05-08T07:41:40;93858.81;;;17.75;100.00
11345;BME280;5727;42.600;23.028;2023-05-08T07:44:07;93865.66;;;17.79;100.00
11345;BME280;5727;42.600;23.028;2023-05-08T07:46:34;93863.28;;;18.14;100.00
11345;BME280;5727;42.600;23.028;2023-05-08T07:49:01;93863.41;;;18.32;100.00
11345;BME280;5727;42.600;23.028;2023-05-08T07:51:28;93863.97;;;18.55;100.00
11345;BME280;5727;42.600;23.028;2023-05-08T07:53:54;93870.84;;;18.67;100.00
11345;BME280;5727;42.600;23.028;2023-05-08T07:56:22;93882.97;;;18.64;98.28
11345;BME280;5727;42.600;23.028;2023-05-08T07:58:49;93882.66;;;18.80;96.77
11345;BME280;5727;42.600;23.028;2023-05-08T08:01:16;93888.28;;;18.64;97.57
11345;BME280;5727;42.600;23.028;2023-05-08T08:03:43;93893.78;;;18.38;100.00
11345;BME280;5727;42.600;23.028;2023-05-08T08:06:10;93893.66;;;18.24;100.00
11345;BME280;5727;42.600;23.028;2023-05-08T08:08:37;93881.47;;;18.12;100.00
11345;BME280;5727;42.600;23.028;2023-05-08T08:11:04;93900.72;;;18.06;100.00
11345;BME280;5727;42.600;23.028;2023-05-08T08:13:32;93888.16;;;17.96;100.00
11345;BME280;5727;42.600;23.028;2023-05-08T08:15:59;93898.06;;;18.06;100.00
11345;BME280;5727;42.600;23.028;2023-05-08T08:18:28;93893.47;;;17.99;100.00
11345;BME280;5727;42.600;23.028;2023-05-08T08:20:55;93905.63;;;18.04;100.00
11345;BME280;5727;42.600;23.028;2023-05-08T08:23:22;93901.00;;;17.90;100.00
11345;BME280;5727;42.600;23.028;2023-05-08T08:25:48;93898.69;;;17.89;100.00
11345;BME280;5727;42.600;23.028;2023-05-08T08:28:17;93891.94;;;17.98;100.00
11345;BME280;5727;42.600;23.028;2023-05-08T08:30:45;93885.34;;;18.25;100.00
11345;BME280;5727;42.600;23.028;2023-05-08T08:33:12;93883.44;;;18.22;99.80
11345;BME280;5727;42.600;23.028;2023-05-08T08:35:39;93882.22;;;18.13;100.00
11345;BME280;5727;42.600;23.028;2023-05-08T08:38:05;93882.97;;;18.13;100.00
11345;BME280;5727;42.600;23.028;2023-05-08T08:40:37;93881.91;;;18.21;100.00
11345;BME280;5727;42.600;23.028;2023-05-08T08:43:04;93881.34;;;17.98;100.00
11345;BME280;5727;42.600;23.028;2023-05-08T08:45:31;93876.59;;;17.71;100.00
11345;BME280;5727;42.600;23.028;2023-05-08T08:48:00;93871.25;;;17.67;100.00
11345;BME280;5727;42.600;23.028;2023-05-08T08:50:30;93862.28;;;17.79;100.00
11345;BME280;5727;42.600;23.028;2023-05-08T08:53:05;93856.91;;;17.72;100.00
11345;BME280;5727;42.600;23.028;2023-05-08T08:55:34;93844.75;;;17.67;100.00
11345;BME280;5727;42.600;23.028;2023-05-08T08:58:13;93828.13;;;17.70;100.00
11345;BME280;5727;42.600;23.028;2023-05-08T09:00:40;93826.78;;;17.90;100.00
11345;BME280;5727;42.600;23.028;2023-05-08T09:03:09;93823.16;;;18.19;100.00
11345;BME280;5727;42.600;23.028;2023-05-08T09:05:36;93822.63;;;18.54;100.00
11345;BME280;5727;42.600;23.028;2023-05-08T09:08:03;93822.41;;;18.91;100.00
11345;BME280;5727;42.600;23.028;2023-05-08T09:10:31;93817.22;;;19.37;100.00
11345;BME280;5727;42.600;23.028;2023-05-08T09:12:58;93807.78;;;19.67;100.00
11345;BME280;5727;42.600;23.028;2023-05-08T09:15:24;93810.84;;;19.73;100.00
11345;BME280;5727;42.600;23.028;2023-05-08T09:17:51;93816.53;;;19.99;100.00
11345;BME280;5727;42.600;23.028;2023-05-08T09:20:20;93815.00;;;20.27;100.00
11345;BME280;5727;42.600;23.028;2023-05-08T09:22:47;93819.13;;;20.45;100.00
11345;BME280;5727;42.600;23.028;2023-05-08T09:25:14;93819.84;;;20.67;100.00
11345;BME280;5727;42.600;23.028;2023-05-08T09:27:43;93830.91;;;20.51;96.69
11345;BME280;5727;42.600;23.028;2023-05-08T09:30:11;93835.88;;;20.32;96.79
11345;BME280;5727;42.600;23.028;2023-05-08T09:32:39;93835.13;;;20.28;97.54
11345;BME280;5727;42.600;23.028;2023-05-08T09:35:08;93841.56;;;20.37;92.82
11345;BME280;5727;42.600;23.028;2023-05-08T09:37:41;93840.06;;;20.08;90.48
11345;BME280;5727;42.600;23.028;2023-05-08T09:40:13;93845.00;;;20.13;96.15
11345;BME280;5727;42.600;23.028;2023-05-08T09:42:40;93842.72;;;20.33;93.00
11345;BME280;5727;42.600;23.028;2023-05-08T09:45:07;93841.13;;;20.60;89.17
11345;BME280;5727;42.600;23.028;2023-05-08T09:47:34;93832.75;;;20.72;89.76
11345;BME280;5727;42.600;23.028;2023-05-08T09:50:05;93836.47;;;20.92;89.93
11345;BME280;5727;42.600;23.028;2023-05-08T09:52:33;93837.97;;;20.96;88.44
11345;BME280;5727;42.600;23.028;2023-05-08T09:55:02;93835.66;;;21.13;82.46
11345;BME280;5727;42.600;23.028;2023-05-08T09:57:30;93832.66;;;21.07;82.22
11345;BME280;5727;42.600;23.028;2023-05-08T10:00:01;93834.94;;;20.94;86.30
11345;BME280;5727;42.600;23.028;2023-05-08T10:02:30;93828.28;;;21.38;82.28
11345;BME280;5727;42.600;23.028;2023-05-08T10:04:57;93830.06;;;21.58;75.99
11345;BME280;5727;42.600;23.028;2023-05-08T10:07:29;93816.97;;;21.78;69.57
11345;BME280;5727;42.600;23.028;2023-05-08T10:10:01;93811.66;;;21.74;67.79
11345;BME280;5727;42.600;23.028;2023-05-08T10:12:29;93804.19;;;21.52;67.93
11345;BME280;5727;42.600;23.028;2023-05-08T10:14:56;93805.53;;;21.77;70.31
11345;BME280;5727;42.600;23.028;2023-05-08T10:17:26;93802.31;;;21.49;69.27
11345;BME280;5727;42.600;23.028;2023-05-08T10:19:57;93806.13;;;21.51;70.53
11345;BME280;5727;42.600;23.028;2023-05-08T10:22:26;93804.00;;;21.22;68.20
11345;BME280;5727;42.600;23.028;2023-05-08T10:24:56;93799.69;;;21.45;69.03
11345;BME280;5727;42.600;23.028;2023-05-08T10:27:30;93793.13;;;21.57;69.74
11345;BME280;5727;42.600;23.028;2023-05-08T10:30:00;93792.28;;;21.70;70.20
11345;BME280;5727;42.600;23.028;2023-05-08T10:32:33;93790.97;;;21.93;69.67
11345;BME280;5727;42.600;23.028;2023-05-08T10:35:02;93780.69;;;21.91;70.89
11345;BME280;5727;42.600;23.028;2023-05-08T10:37:29;93775.84;;;22.20;74.43
11345;BME280;5727;42.600;23.028;2023-05-08T10:39:57;93778.44;;;22.27;68.76
11345;BME280;5727;42.600;23.028;2023-05-08T10:42:25;93772.75;;;22.25;70.87
11345;BME280;5727;42.600;23.028;2023-05-08T10:44:53;93771.47;;;22.36;68.96
11345;BME280;5727;42.600;23.028;2023-05-08T10:47:24;93763.06;;;22.01;69.17
11345;BME280;5727;42.600;23.028;2023-05-08T10:50:00;93763.72;;;22.12;71.06
11345;BME280;5727;42.600;23.028;2023-05-08T10:52:33;93768.50;;;22.31;65.71
11345;BME280;5727;42.600;23.028;2023-05-08T10:55:21;93769.22;;;22.35;65.05
11345;BME280;5727;42.600;23.028;2023-05-08T10:58:29;93761.69;;;22.23;57.71
11345;BME280;5727;42.600;23.028;2023-05-08T11:01:13;93755.78;;;22.05;56.88
11345;BME280;5727;42.600;23.028;2023-05-08T11:03:45;93745.53;;;22.00;60.01
11345;BME280;5727;42.600;23.028;2023-05-08T11:06:13;93746.41;;;22.27;62.12
11345;BME280;5727;42.600;23.028;2023-05-08T11:08:48;93736.00;;;22.73;58.55
11345;BME280;5727;42.600;23.028;2023-05-08T11:11:35;93731.53;;;22.93;52.19
11345;BME280;5727;42.600;23.028;2023-05-08T11:14:13;93727.34;;;22.92;52.16
11345;BME280;5727;42.600;23.028;2023-05-08T11:17:03;93724.84;;;23.08;52.41
11345;BME280;5727;42.600;23.028;2023-05-08T11:19:30;93727.56;;;23.05;52.83
11345;BME280;5727;42.600;23.028;2023-05-08T11:22:14;93722.81;;;23.16;53.20
11345;BME280;5727;42.600;23.028;2023-05-08T11:24:47;93709.31;;;23.26;53.74
11345;BME280;5727;42.600;23.028;2023-05-08T11:27:14;93714.28;;;22.98;53.63
11345;BME280;5727;42.600;23.028;2023-05-08T11:29:42;93706.88;;;22.82;54.53
11345;BME280;5727;42.600;23.028;2023-05-08T11:32:09;93699.63;;;23.09;52.88
11345;BME280;5727;42.600;23.028;2023-05-08T11:34:46;93686.56;;;23.65;51.26
11345;BME280;5727;42.600;23.028;2023-05-08T11:37:18;93688.66;;;24.59;48.36
11345;BME280;5727;42.600;23.028;2023-05-08T11:39:45;93689.13;;;24.93;46.29
11345;BME280;5727;42.600;23.028;2023-05-08T11:42:34;93698.66;;;25.62;43.69
11345;BME280;5727;42.600;23.028;2023-05-08T11:45:04;93694.81;;;24.95;44.84
11345;BME280;5727;42.600;23.028;2023-05-08T11:47:36;93685.22;;;24.38;46.71
11345;BME280;5727;42.600;23.028;2023-05-08T11:50:04;93684.63;;;24.31;47.76
11345;BME280;5727;42.600;23.028;2023-05-08T11:52:31;93677.16;;;24.22;47.03
11345;BME280;5727;42.600;23.028;2023-05-08T11:55:02;93683.56;;;23.63;50.68
11345;BME280;5727;42.600;23.028;2023-05-08T11:57:29;93687.25;;;22.92;52.29
11345;BME280;5727;42.600;23.028;2023-05-08T11:59:56;93697.69;;;22.56;55.12
11345;BME280;5727;42.600;23.028;2023-05-08T12:02:35;93704.78;;;21.99;58.06
11345;BME280;5727;42.600;23.028;2023-05-08T12:05:02;93705.00;;;21.74;60.32
11345;BME280;5727;42.600;23.028;2023-05-08T12:07:29;93696.69;;;21.65;60.86
11345;BME280;5727;42.600;23.028;2023-05-08T12:09:56;93690.75;;;21.92;60.94
11345;BME280;5727;42.600;23.028;2023-05-08T12:12:22;93681.13;;;22.01;59.49
11345;BME280;5727;42.600;23.028;2023-05-08T12:14:49;93680.66;;;22.43;56.20
11345;BME280;5727;42.600;23.028;2023-05-08T12:17:16;93674.84;;;22.79;55.81
11345;BME280;5727;42.600;23.028;2023-05-08T12:19:45;93671.16;;;22.73;55.46
11345;BME280;5727;42.600;23.028;2023-05-08T12:22:12;93673.72;;;22.46;63.10
11345;BME280;5727;42.600;23.028;2023-05-08T12:24:38;93661.97;;;23.50;59.37
11345;BME280;5727;42.600;23.028;2023-05-08T12:27:05;93665.09;;;24.50;53.66
11345;BME280;5727;42.600;23.028;2023-05-08T12:29:35;93667.72;;;24.73;52.33
11345;BME280;5727;42.600;23.028;2023-05-08T12:32:02;93661.59;;;25.08;49.13
11345;BME280;5727;42.600;23.028;2023-05-08T12:34:29;93664.09;;;25.31;49.50
11345;BME280;5727;42.600;23.028;2023-05-08T12:37:04;93670.84;;;26.16;47.21
11345;BME280;5727;42.600;23.028;2023-05-08T12:39:34;93656.50;;;27.99;42.16
11345;BME280;5727;42.600;23.028;2023-05-08T12:42:01;93646.53;;;29.44;38.59
11345;BME280;5727;42.600;23.028;2023-05-08T12:44:29;93645.16;;;29.00;36.60
11345;BME280;5727;42.600;23.028;2023-05-08T12:46:56;93632.09;;;29.29;36.67
11345;BME280;5727;42.600;23.028;2023-05-08T12:49:25;93629.81;;;29.85;34.07
11345;BME280;5727;42.600;23.028;2023-05-08T12:52:00;93628.34;;;30.29;33.56
11345;BME280;5727;42.600;23.028;2023-05-08T12:54:39;93632.22;;;29.92;33.93
11345;BME280;5727;42.600;23.028;2023-05-08T12:57:10;93633.41;;;28.54;35.15
11345;BME280;5727;42.600;23.028;2023-05-08T12:59:37;93639.13;;;27.53;37.32
11345;BME280;5727;42.600;23.028;2023-05-08T13:02:04;93647.66;;;26.76;39.87
11345;BME280;5727;42.600;23.028;2023-05-08T13:04:37;93643.72;;;26.11;43.35
11345;BME280;5727;42.600;23.028;2023-05-08T13:07:03;93668.00;;;23.77;58.74
11345;BME280;5727;42.600;23.028;2023-05-08T13:09:30;93686.25;;;22.22;86.70
11345;BME280;5727;42.600;23.028;2023-05-08T13:11:59;93689.97;;;20.13;100.00